Terminal Aerodrome Forecast
Issued by NWS

Home | Current Version | Previous Version | Text Only | Print | Product List | Glossary On
Versions: 1 2 3 4 5 6 7 8 9 10 11 12 13 14 15 16 17 18 19 20 21 22 23 24 25 26 27 28 29 30
000
FTUS44 KLZK 220520
TAFADF
TAF
KADF 220520Z 2206/2306 32006KT P6SM OVC015
     FM220800 00000KT 4SM BR BKN005 OVC010
      TEMPO 2209/2213 1SM BR
     FM221400 VRB02KT P6SM SCT005 BKN012
     FM221800 20004KT P6SM FEW250
     FM230000 14002KT P6SM FEW250=

USA.gov is the U.S. government's official web portal to all federal, state and local government web resources and services.